Tilghman, Maryland
Current Conditions -  °F | °C
As of 3:50 PM on Saturday 20 Dec 2014 (Local Time) from KESN Reporting Station
Broken Clouds Broken Clouds  
Wind Chill: 37°   Ceiling: 3200
Heat Index: 37°   Visibility: 10mi
Dew Point: 27°   Wind: 3mph
Humidity: 65%   Direction: 260°W
Pressure: 30.3"   Gusts: NA
Location:  38.72°N, 76.33°W
Report Text: KESN 202050Z 26003KT 10SM BKN032 03/M03 A3030
Loading
Personal Weather Stations






























Interactive Weather Map New forecast layout! Learn more

10-Day Weather Forecast

Advertisements
Track Severe Weather on mobile